FDX1202 KEWR-KMEM
Flight info
| Callsign | FDX1202 |
|---|---|
| Flight time | 2h 5m |
| Altitude | 32000 |
| Route | PARKE J6 HVQ Q68 RAMRD BLUZZ5 |
| Aircraft | B77L/H-SDE1E2E3FGHIJ2J3J4J5M1RWXY/LB1D1 |
Departure
| Time | 2026-04-24 12:12 |
|---|---|
| Airport | Newark Liberty International Airport (KEWR) |
Arrival
| Time | 2026-04-24 14:17 |
|---|---|
| Airport | Memphis International Airport (KMEM) |
| Time | Latitude | Longitude | Altitude | Speed | Heading |
|---|---|---|---|---|---|
| 2026-04-24 11:53 | 40.67947 | -74.18232 | 27 ft | 0 kts | 296° |
| 2026-04-24 12:05 | 40.67940 | -74.18213 | 27 ft | 4 kts | 294° |
| 2026-04-24 12:05 | 40.67935 | -74.18181 | 27 ft | 4 kts | 253° |
| 2026-04-24 12:05 | 40.67949 | -74.18155 | 27 ft | 3 kts | 207° |
| 2026-04-24 12:06 | 40.67953 | -74.18153 | 27 ft | 2 kts | 205° |
| 2026-04-24 12:09 | 40.67952 | -74.18153 | 27 ft | 1 kts | 206° |
| 2026-04-24 12:09 | 40.67928 | -74.18170 | 27 ft | 7 kts | 208° |
| 2026-04-24 12:09 | 40.67865 | -74.18209 | 27 ft | 13 kts | 205° |
| 2026-04-24 12:09 | 40.67775 | -74.18266 | 27 ft | 14 kts | 206° |
| 2026-04-24 12:10 | 40.67720 | -74.18244 | 27 ft | 11 kts | 126° |
| 2026-04-24 12:10 | 40.67671 | -74.18139 | 27 ft | 15 kts | 140° |
| 2026-04-24 12:10 | 40.67612 | -74.18065 | 25 ft | 0 kts | 132° |
| 2026-04-24 12:11 | 40.67571 | -74.17994 | 27 ft | 2 kts | 123° |
| 2026-04-24 12:11 | 40.67576 | -74.17925 | 26 ft | 11 kts | 40° |
| 2026-04-24 12:11 | 40.67645 | -74.17877 | 26 ft | 11 kts | 25° |
| 2026-04-24 12:11 | 40.67658 | -74.17870 | 32 ft | 0 kts | 25° |
| 2026-04-24 12:12 | 40.67716 | -74.17833 | 30 ft | 39 kts | 25° |
| 2026-04-24 12:12 | 40.68211 | -74.17521 | 30 ft | 114 kts | 25° |
| 2026-04-24 12:12 | 40.69128 | -74.16938 | 38 ft | 175 kts | 25° |
| 2026-04-24 12:12 | 40.70216 | -74.16192 | 641 ft | 179 kts | 27° |
| 2026-04-24 12:13 | 40.71282 | -74.15359 | 1357 ft | 177 kts | 38° |
| 2026-04-24 12:13 | 40.72171 | -74.14227 | 1907 ft | 180 kts | 42° |
| 2026-04-24 12:13 | 40.73160 | -74.13026 | 2028 ft | 211 kts | 40° |
| 2026-04-24 12:13 | 40.74309 | -74.11655 | 2388 ft | 230 kts | 40° |
| 2026-04-24 12:14 | 40.75576 | -74.10300 | 2881 ft | 238 kts | 25° |
| 2026-04-24 12:14 | 40.77180 | -74.09850 | 3480 ft | 240 kts | 353° |
| 2026-04-24 12:14 | 40.78754 | -74.10542 | 4258 ft | 240 kts | 328° |
| 2026-04-24 12:14 | 40.79938 | -74.12038 | 5121 ft | 237 kts | 301° |
| 2026-04-24 12:15 | 40.80351 | -74.14163 | 5930 ft | 244 kts | 279° |
| 2026-04-24 12:15 | 40.80307 | -74.16407 | 6735 ft | 248 kts | 270° |
| 2026-04-24 12:15 | 40.80053 | -74.18660 | 7535 ft | 249 kts | 268° |
| 2026-04-24 12:15 | 40.79756 | -74.20914 | 8344 ft | 250 kts | 268° |
| 2026-04-24 12:16 | 40.79451 | -74.23180 | 9116 ft | 251 kts | 268° |
| 2026-04-24 12:16 | 40.79248 | -74.24682 | 9632 ft | 252 kts | 269° |
| 2026-04-24 12:16 | 40.78943 | -74.26965 | 10311 ft | 255 kts | 269° |
| 2026-04-24 12:16 | 40.78632 | -74.29355 | 10583 ft | 276 kts | 269° |
| 2026-04-24 12:17 | 40.78298 | -74.31964 | 10792 ft | 300 kts | 268° |
| 2026-04-24 12:17 | 40.77934 | -74.34797 | 10971 ft | 324 kts | 268° |
| 2026-04-24 12:17 | 40.77544 | -74.37780 | 11502 ft | 336 kts | 267° |
| 2026-04-24 12:17 | 40.77138 | -74.40869 | 12225 ft | 345 kts | 267° |
| 2026-04-24 12:18 | 40.76725 | -74.44008 | 13107 ft | 349 kts | 267° |
| 2026-04-24 12:18 | 40.76308 | -74.47189 | 13954 ft | 354 kts | 267° |
| 2026-04-24 12:18 | 40.75888 | -74.50405 | 14756 ft | 357 kts | 267° |
| 2026-04-24 12:18 | 40.75463 | -74.53651 | 15610 ft | 360 kts | 267° |
| 2026-04-24 12:19 | 40.75038 | -74.56912 | 16446 ft | 362 kts | 267° |
| 2026-04-24 12:19 | 40.74607 | -74.60206 | 17238 ft | 366 kts | 266° |
| 2026-04-24 12:19 | 40.74173 | -74.63529 | 17989 ft | 370 kts | 266° |
| 2026-04-24 12:19 | 40.73735 | -74.66889 | 18644 ft | 375 kts | 266° |
| 2026-04-24 12:20 | 40.73295 | -74.70247 | 19262 ft | 379 kts | 266° |
| 2026-04-24 12:20 | 40.72840 | -74.73698 | 19923 ft | 382 kts | 266° |
| 2026-04-24 12:20 | 40.72380 | -74.77169 | 20576 ft | 386 kts | 266° |
| 2026-04-24 12:20 | 40.71917 | -74.80665 | 21201 ft | 390 kts | 266° |
| 2026-04-24 12:21 | 40.71447 | -74.84208 | 21832 ft | 394 kts | 266° |
| 2026-04-24 12:21 | 40.70972 | -74.87777 | 22469 ft | 398 kts | 266° |
| 2026-04-24 12:21 | 40.70487 | -74.91393 | 23090 ft | 402 kts | 266° |
| 2026-04-24 12:21 | 40.69998 | -74.95036 | 23655 ft | 406 kts | 266° |
| 2026-04-24 12:22 | 40.69507 | -74.98710 | 24180 ft | 409 kts | 266° |
| 2026-04-24 12:22 | 40.68991 | -75.02427 | 24672 ft | 415 kts | 264° |
| 2026-04-24 12:22 | 40.68197 | -75.06127 | 25151 ft | 425 kts | 257° |
| 2026-04-24 12:22 | 40.67107 | -75.09779 | 25581 ft | 433 kts | 253° |
| 2026-04-24 12:23 | 40.65760 | -75.13364 | 26020 ft | 442 kts | 247° |
| 2026-04-24 12:23 | 40.64170 | -75.16877 | 26498 ft | 448 kts | 246° |
| 2026-04-24 12:23 | 40.62544 | -75.20388 | 26983 ft | 451 kts | 245° |
| 2026-04-24 12:23 | 40.60900 | -75.23928 | 27440 ft | 454 kts | 245° |
| 2026-04-24 12:24 | 40.59253 | -75.27494 | 27940 ft | 458 kts | 245° |
| 2026-04-24 12:24 | 40.57600 | -75.31086 | 28379 ft | 461 kts | 245° |
| 2026-04-24 12:24 | 40.55936 | -75.34714 | 28828 ft | 465 kts | 245° |
| 2026-04-24 12:24 | 40.54263 | -75.38365 | 29233 ft | 469 kts | 245° |
| 2026-04-24 12:25 | 40.52576 | -75.42045 | 29648 ft | 471 kts | 245° |
| 2026-04-24 12:25 | 40.50882 | -75.45738 | 30125 ft | 472 kts | 245° |
| 2026-04-24 12:25 | 40.49184 | -75.49433 | 30572 ft | 472 kts | 245° |
| 2026-04-24 12:25 | 40.47486 | -75.53118 | 31040 ft | 471 kts | 245° |
| 2026-04-24 12:26 | 40.45789 | -75.56790 | 31478 ft | 471 kts | 245° |
| 2026-04-24 12:26 | 40.44092 | -75.60464 | 31847 ft | 471 kts | 245° |
| 2026-04-24 12:26 | 40.42390 | -75.64153 | 31916 ft | 474 kts | 245° |
| 2026-04-24 12:27 | 40.38990 | -75.71517 | 31921 ft | 470 kts | 245° |
| 2026-04-24 12:27 | 40.35601 | -75.78839 | 31899 ft | 469 kts | 245° |
| 2026-04-24 12:28 | 40.32229 | -75.86110 | 31909 ft | 470 kts | 244° |
| 2026-04-24 12:28 | 40.28821 | -75.93419 | 31956 ft | 472 kts | 244° |
| 2026-04-24 12:28 | 40.27099 | -75.97099 | 32186 ft | 475 kts | 244° |
| 2026-04-24 12:29 | 40.25372 | -76.00777 | 32720 ft | 472 kts | 244° |
| 2026-04-24 12:29 | 40.23653 | -76.04432 | 33243 ft | 469 kts | 244° |
| 2026-04-24 12:29 | 40.21936 | -76.08082 | 33705 ft | 468 kts | 244° |
| 2026-04-24 12:29 | 40.20232 | -76.11706 | 33942 ft | 470 kts | 244° |
| 2026-04-24 12:30 | 40.18508 | -76.15370 | 33907 ft | 473 kts | 244° |
| 2026-04-24 12:30 | 40.15048 | -76.22680 | 33914 ft | 470 kts | 244° |
| 2026-04-24 12:31 | 40.11624 | -76.29921 | 33922 ft | 467 kts | 244° |
| 2026-04-24 12:31 | 40.08279 | -76.37183 | 33915 ft | 465 kts | 245° |
| 2026-04-24 12:32 | 40.04956 | -76.44414 | 33902 ft | 464 kts | 245° |
| 2026-04-24 12:32 | 40.01653 | -76.51559 | 33883 ft | 462 kts | 245° |
| 2026-04-24 12:33 | 39.98332 | -76.58738 | 33913 ft | 462 kts | 245° |
| 2026-04-24 12:33 | 39.95003 | -76.65903 | 33919 ft | 462 kts | 245° |
| 2026-04-24 12:34 | 39.91671 | -76.73070 | 33929 ft | 462 kts | 244° |
| 2026-04-24 12:34 | 39.88333 | -76.80234 | 33929 ft | 463 kts | 244° |
| 2026-04-24 12:35 | 39.84972 | -76.87416 | 33904 ft | 464 kts | 244° |
| 2026-04-24 12:35 | 39.81603 | -76.94588 | 33921 ft | 465 kts | 244° |
| 2026-04-24 12:36 | 39.78222 | -77.01768 | 33922 ft | 465 kts | 244° |
| 2026-04-24 12:36 | 39.74837 | -77.08937 | 33909 ft | 466 kts | 244° |
| 2026-04-24 12:37 | 39.71443 | -77.16103 | 33923 ft | 465 kts | 244° |
| 2026-04-24 12:37 | 39.68053 | -77.23259 | 33905 ft | 465 kts | 244° |
| 2026-04-24 12:38 | 39.64677 | -77.30394 | 33921 ft | 464 kts | 244° |
| 2026-04-24 12:38 | 39.61296 | -77.37523 | 33920 ft | 463 kts | 244° |
| 2026-04-24 12:39 | 39.54522 | -77.51723 | 33920 ft | 462 kts | 244° |
| 2026-04-24 12:40 | 39.51132 | -77.58803 | 33919 ft | 462 kts | 244° |
| 2026-04-24 12:40 | 39.47762 | -77.65822 | 33915 ft | 462 kts | 243° |
| 2026-04-24 12:41 | 39.44358 | -77.72894 | 33900 ft | 463 kts | 243° |
| 2026-04-24 12:41 | 39.40943 | -77.79971 | 33898 ft | 464 kts | 243° |
| 2026-04-24 12:42 | 39.37633 | -77.87111 | 33904 ft | 461 kts | 248° |
| 2026-04-24 12:42 | 39.34730 | -77.94487 | 33897 ft | 460 kts | 248° |
| 2026-04-24 12:43 | 39.31839 | -78.01869 | 33902 ft | 461 kts | 248° |
| 2026-04-24 12:43 | 39.28912 | -78.09255 | 33914 ft | 462 kts | 248° |
| 2026-04-24 12:44 | 39.25967 | -78.16626 | 33916 ft | 462 kts | 248° |
| 2026-04-24 12:44 | 39.23008 | -78.24005 | 33916 ft | 463 kts | 248° |
| 2026-04-24 12:45 | 39.20046 | -78.31377 | 33904 ft | 463 kts | 247° |
| 2026-04-24 12:45 | 39.17081 | -78.38741 | 33909 ft | 463 kts | 247° |
| 2026-04-24 12:46 | 39.14109 | -78.46102 | 33913 ft | 463 kts | 247° |
| 2026-04-24 12:46 | 39.11132 | -78.53462 | 33909 ft | 463 kts | 247° |
| 2026-04-24 12:47 | 39.08151 | -78.60810 | 33905 ft | 463 kts | 247° |
| 2026-04-24 12:47 | 39.05165 | -78.68146 | 33910 ft | 462 kts | 247° |
| 2026-04-24 12:48 | 39.02178 | -78.75469 | 33928 ft | 462 kts | 247° |
| 2026-04-24 12:48 | 38.99183 | -78.82792 | 33925 ft | 461 kts | 247° |
| 2026-04-24 12:49 | 38.96198 | -78.90094 | 33907 ft | 461 kts | 247° |
| 2026-04-24 12:49 | 38.93219 | -78.97372 | 33928 ft | 460 kts | 247° |
| 2026-04-24 12:50 | 38.90227 | -79.04646 | 33912 ft | 460 kts | 246° |
| 2026-04-24 12:50 | 38.87229 | -79.11911 | 33923 ft | 461 kts | 246° |
| 2026-04-24 12:51 | 38.84405 | -79.19303 | 33924 ft | 460 kts | 253° |
| 2026-04-24 12:51 | 38.82602 | -79.27118 | 33931 ft | 455 kts | 261° |
| 2026-04-24 12:52 | 38.81239 | -79.35039 | 33926 ft | 454 kts | 261° |
| 2026-04-24 12:52 | 38.79851 | -79.42931 | 33919 ft | 454 kts | 261° |
| 2026-04-24 12:53 | 38.78434 | -79.50809 | 33941 ft | 454 kts | 261° |
| 2026-04-24 12:53 | 38.76999 | -79.58702 | 33950 ft | 455 kts | 261° |
| 2026-04-24 12:54 | 38.75555 | -79.66603 | 33962 ft | 456 kts | 260° |
| 2026-04-24 12:54 | 38.74103 | -79.74523 | 33995 ft | 457 kts | 260° |
| 2026-04-24 12:55 | 38.72643 | -79.82449 | 33989 ft | 458 kts | 260° |
| 2026-04-24 12:55 | 38.71176 | -79.90384 | 34001 ft | 458 kts | 260° |
| 2026-04-24 12:56 | 38.69697 | -79.98344 | 33993 ft | 459 kts | 260° |
| 2026-04-24 12:56 | 38.68463 | -80.04953 | 33985 ft | 459 kts | 260° |
| 2026-04-24 12:57 | 38.66976 | -80.12886 | 33949 ft | 458 kts | 260° |
| 2026-04-24 12:57 | 38.65495 | -80.20800 | 33944 ft | 457 kts | 260° |
| 2026-04-24 12:58 | 38.63781 | -80.29983 | 33962 ft | 456 kts | 260° |
| 2026-04-24 12:58 | 38.62538 | -80.36593 | 33960 ft | 456 kts | 259° |
| 2026-04-24 12:59 | 38.61044 | -80.44480 | 33968 ft | 457 kts | 259° |
| 2026-04-24 12:59 | 38.59542 | -80.52370 | 33964 ft | 457 kts | 259° |
| 2026-04-24 13:00 | 38.58028 | -80.60292 | 33956 ft | 458 kts | 259° |
| 2026-04-24 13:00 | 38.56520 | -80.68149 | 33969 ft | 459 kts | 259° |
| 2026-04-24 13:01 | 38.54993 | -80.76078 | 33957 ft | 460 kts | 259° |
| 2026-04-24 13:01 | 38.53456 | -80.84022 | 33951 ft | 461 kts | 259° |
| 2026-04-24 13:02 | 38.51916 | -80.91953 | 33955 ft | 459 kts | 259° |
| 2026-04-24 13:02 | 38.50374 | -80.99861 | 33955 ft | 458 kts | 259° |
| 2026-04-24 13:03 | 38.48830 | -81.07760 | 33966 ft | 458 kts | 259° |
| 2026-04-24 13:03 | 38.47281 | -81.15644 | 33963 ft | 457 kts | 259° |
| 2026-04-24 13:04 | 38.45728 | -81.23515 | 33961 ft | 457 kts | 259° |
| 2026-04-24 13:04 | 38.44172 | -81.31378 | 33956 ft | 457 kts | 259° |
| 2026-04-24 13:05 | 38.42608 | -81.39246 | 33967 ft | 458 kts | 258° |
| 2026-04-24 13:05 | 38.41033 | -81.47132 | 33965 ft | 459 kts | 258° |
| 2026-04-24 13:06 | 38.39449 | -81.55036 | 33967 ft | 460 kts | 258° |
| 2026-04-24 13:06 | 38.37854 | -81.62950 | 34002 ft | 461 kts | 258° |
| 2026-04-24 13:07 | 38.36252 | -81.70870 | 33992 ft | 462 kts | 258° |
| 2026-04-24 13:07 | 38.34567 | -81.78739 | 33984 ft | 460 kts | 254° |
| 2026-04-24 13:08 | 38.32416 | -81.86394 | 33977 ft | 458 kts | 253° |
| 2026-04-24 13:08 | 38.30255 | -81.94006 | 33967 ft | 456 kts | 253° |
| 2026-04-24 13:09 | 38.27038 | -82.05368 | 33958 ft | 454 kts | 253° |
| 2026-04-24 13:09 | 38.24897 | -82.12920 | 33955 ft | 454 kts | 253° |
| 2026-04-24 13:10 | 38.22749 | -82.20467 | 33958 ft | 454 kts | 253° |
| 2026-04-24 13:10 | 38.20604 | -82.27975 | 33956 ft | 455 kts | 253° |
| 2026-04-24 13:11 | 38.18444 | -82.35546 | 33960 ft | 456 kts | 253° |
| 2026-04-24 13:11 | 38.16291 | -82.43141 | 33943 ft | 457 kts | 253° |
| 2026-04-24 13:12 | 38.14125 | -82.50746 | 33971 ft | 459 kts | 253° |
| 2026-04-24 13:12 | 38.11937 | -82.58379 | 33969 ft | 460 kts | 253° |
| 2026-04-24 13:13 | 38.09738 | -82.66018 | 33965 ft | 461 kts | 253° |
| 2026-04-24 13:13 | 38.07532 | -82.73665 | 33963 ft | 462 kts | 253° |
| 2026-04-24 13:14 | 38.05319 | -82.81311 | 33949 ft | 461 kts | 253° |
| 2026-04-24 13:14 | 38.03102 | -82.88948 | 33954 ft | 461 kts | 253° |
| 2026-04-24 13:15 | 38.00886 | -82.96563 | 33963 ft | 460 kts | 253° |
| 2026-04-24 13:15 | 37.98665 | -83.04175 | 33970 ft | 459 kts | 252° |
| 2026-04-24 13:16 | 37.96447 | -83.11754 | 33969 ft | 458 kts | 252° |
| 2026-04-24 13:16 | 37.94231 | -83.19303 | 33963 ft | 456 kts | 252° |
| 2026-04-24 13:17 | 37.92020 | -83.26818 | 33971 ft | 455 kts | 252° |
| 2026-04-24 13:17 | 37.89821 | -83.34267 | 33972 ft | 454 kts | 252° |
| 2026-04-24 13:18 | 37.87601 | -83.41771 | 33976 ft | 454 kts | 252° |
| 2026-04-24 13:18 | 37.85379 | -83.49259 | 33963 ft | 455 kts | 252° |
| 2026-04-24 13:19 | 37.83149 | -83.56753 | 33964 ft | 455 kts | 252° |
| 2026-04-24 13:19 | 37.80913 | -83.64245 | 33962 ft | 455 kts | 252° |
| 2026-04-24 13:20 | 37.78672 | -83.71733 | 33957 ft | 456 kts | 252° |
| 2026-04-24 13:20 | 37.76422 | -83.79229 | 33963 ft | 456 kts | 252° |
| 2026-04-24 13:21 | 37.74171 | -83.86709 | 33960 ft | 456 kts | 252° |
| 2026-04-24 13:21 | 37.71914 | -83.94185 | 33969 ft | 455 kts | 252° |
| 2026-04-24 13:22 | 37.69653 | -84.01650 | 33980 ft | 455 kts | 252° |
| 2026-04-24 13:22 | 37.67384 | -84.09112 | 33991 ft | 455 kts | 252° |
| 2026-04-24 13:23 | 37.65133 | -84.16518 | 33999 ft | 455 kts | 252° |
| 2026-04-24 13:23 | 37.62862 | -84.23963 | 34010 ft | 454 kts | 252° |
| 2026-04-24 13:24 | 37.60581 | -84.31404 | 33999 ft | 455 kts | 252° |
| 2026-04-24 13:24 | 37.58291 | -84.38836 | 33973 ft | 455 kts | 252° |
| 2026-04-24 13:25 | 37.55996 | -84.46258 | 33983 ft | 455 kts | 252° |
| 2026-04-24 13:25 | 37.53693 | -84.53684 | 33991 ft | 455 kts | 252° |
| 2026-04-24 13:26 | 37.51383 | -84.61112 | 34000 ft | 455 kts | 252° |
| 2026-04-24 13:26 | 37.49119 | -84.68368 | 33995 ft | 456 kts | 252° |
| 2026-04-24 13:27 | 37.46811 | -84.75810 | 34001 ft | 456 kts | 252° |
| 2026-04-24 13:27 | 37.44522 | -84.83271 | 33993 ft | 457 kts | 252° |
| 2026-04-24 13:28 | 37.42217 | -84.90734 | 33984 ft | 458 kts | 252° |
| 2026-04-24 13:28 | 37.39898 | -84.98201 | 33981 ft | 458 kts | 252° |
| 2026-04-24 13:29 | 37.37575 | -85.05670 | 33994 ft | 459 kts | 252° |
| 2026-04-24 13:29 | 37.35232 | -85.13150 | 34014 ft | 460 kts | 252° |
| 2026-04-24 13:30 | 37.32873 | -85.20632 | 34030 ft | 461 kts | 252° |
| 2026-04-24 13:30 | 37.30497 | -85.28134 | 34029 ft | 462 kts | 252° |
| 2026-04-24 13:31 | 37.28115 | -85.35638 | 33957 ft | 463 kts | 252° |
| 2026-04-24 13:31 | 37.25725 | -85.43147 | 33949 ft | 463 kts | 252° |
| 2026-04-24 13:32 | 37.23328 | -85.50664 | 33959 ft | 464 kts | 252° |
| 2026-04-24 13:32 | 37.20920 | -85.58191 | 33958 ft | 465 kts | 252° |
| 2026-04-24 13:33 | 37.18506 | -85.65719 | 33961 ft | 466 kts | 252° |
| 2026-04-24 13:33 | 37.16085 | -85.73248 | 33963 ft | 466 kts | 252° |
| 2026-04-24 13:34 | 37.13670 | -85.80736 | 33968 ft | 466 kts | 252° |
| 2026-04-24 13:34 | 37.11239 | -85.88258 | 33970 ft | 466 kts | 252° |
| 2026-04-24 13:35 | 37.08799 | -85.95786 | 33973 ft | 466 kts | 252° |
| 2026-04-24 13:35 | 37.06360 | -86.03291 | 33971 ft | 465 kts | 252° |
| 2026-04-24 13:36 | 37.03914 | -86.10799 | 33972 ft | 465 kts | 252° |
| 2026-04-24 13:36 | 37.01461 | -86.18303 | 33965 ft | 465 kts | 252° |
| 2026-04-24 13:37 | 36.99007 | -86.25791 | 33952 ft | 465 kts | 252° |
| 2026-04-24 13:37 | 36.96545 | -86.33279 | 33956 ft | 465 kts | 252° |
| 2026-04-24 13:38 | 36.94078 | -86.40763 | 33956 ft | 466 kts | 252° |
| 2026-04-24 13:38 | 36.91444 | -86.48173 | 33949 ft | 468 kts | 247° |
| 2026-04-24 13:39 | 36.88830 | -86.54107 | 33964 ft | 470 kts | 244° |
| 2026-04-24 13:39 | 36.85577 | -86.61200 | 33958 ft | 470 kts | 244° |
| 2026-04-24 13:40 | 36.82367 | -86.68327 | 33950 ft | 470 kts | 245° |
| 2026-04-24 13:40 | 36.79198 | -86.75472 | 33950 ft | 470 kts | 245° |
| 2026-04-24 13:41 | 36.76042 | -86.82608 | 33947 ft | 470 kts | 245° |
| 2026-04-24 13:41 | 36.72877 | -86.89746 | 33947 ft | 470 kts | 245° |
| 2026-04-24 13:42 | 36.69710 | -86.96865 | 33939 ft | 469 kts | 245° |
| 2026-04-24 13:42 | 36.66542 | -87.03969 | 33941 ft | 468 kts | 245° |
| 2026-04-24 13:43 | 36.63398 | -87.11003 | 33931 ft | 468 kts | 245° |
| 2026-04-24 13:43 | 36.60232 | -87.18073 | 33940 ft | 467 kts | 245° |
| 2026-04-24 13:44 | 36.57068 | -87.25124 | 33946 ft | 467 kts | 245° |
| 2026-04-24 13:44 | 36.53880 | -87.32214 | 33937 ft | 466 kts | 244° |
| 2026-04-24 13:45 | 36.50728 | -87.39202 | 33959 ft | 466 kts | 244° |
| 2026-04-24 13:45 | 36.47556 | -87.46224 | 33949 ft | 466 kts | 244° |
| 2026-04-24 13:46 | 36.44380 | -87.53241 | 33953 ft | 466 kts | 244° |
| 2026-04-24 13:46 | 36.41200 | -87.60246 | 33954 ft | 466 kts | 244° |
| 2026-04-24 13:47 | 36.38020 | -87.67232 | 33932 ft | 457 kts | 244° |
| 2026-04-24 13:47 | 36.36479 | -87.70604 | 33928 ft | 442 kts | 245° |
| 2026-04-24 13:47 | 36.34979 | -87.73891 | 33936 ft | 434 kts | 245° |
| 2026-04-24 13:48 | 36.33506 | -87.77124 | 33764 ft | 429 kts | 245° |
| 2026-04-24 13:48 | 36.32047 | -87.80328 | 33462 ft | 423 kts | 244° |
| 2026-04-24 13:48 | 36.30605 | -87.83492 | 33049 ft | 419 kts | 244° |
| 2026-04-24 13:48 | 36.29180 | -87.86621 | 32614 ft | 416 kts | 244° |
| 2026-04-24 13:49 | 36.27760 | -87.89731 | 32182 ft | 412 kts | 244° |
| 2026-04-24 13:49 | 36.26352 | -87.92809 | 31748 ft | 409 kts | 244° |
| 2026-04-24 13:49 | 36.24953 | -87.95861 | 31318 ft | 406 kts | 244° |
| 2026-04-24 13:49 | 36.23562 | -87.98892 | 30896 ft | 403 kts | 244° |
| 2026-04-24 13:50 | 36.22180 | -88.01900 | 30466 ft | 401 kts | 244° |
| 2026-04-24 13:50 | 36.20803 | -88.04892 | 30049 ft | 399 kts | 243° |
| 2026-04-24 13:50 | 36.19432 | -88.07868 | 29559 ft | 397 kts | 243° |
| 2026-04-24 13:50 | 36.18066 | -88.10830 | 29095 ft | 394 kts | 243° |
| 2026-04-24 13:51 | 36.16710 | -88.13768 | 28649 ft | 391 kts | 243° |
| 2026-04-24 13:51 | 36.15363 | -88.16683 | 28231 ft | 388 kts | 243° |
| 2026-04-24 13:51 | 36.14027 | -88.19572 | 27803 ft | 385 kts | 243° |
| 2026-04-24 13:51 | 36.12698 | -88.22442 | 27392 ft | 382 kts | 243° |
| 2026-04-24 13:52 | 36.11378 | -88.25286 | 26980 ft | 380 kts | 243° |
| 2026-04-24 13:52 | 36.10066 | -88.28114 | 26576 ft | 377 kts | 243° |
| 2026-04-24 13:52 | 36.08768 | -88.30914 | 26178 ft | 375 kts | 243° |
| 2026-04-24 13:52 | 36.07474 | -88.33706 | 25780 ft | 372 kts | 243° |
| 2026-04-24 13:53 | 36.06192 | -88.36474 | 25381 ft | 370 kts | 243° |
| 2026-04-24 13:53 | 36.04983 | -88.39086 | 25009 ft | 368 kts | 243° |
| 2026-04-24 13:53 | 36.03702 | -88.41850 | 24615 ft | 366 kts | 243° |
| 2026-04-24 13:53 | 36.02437 | -88.44577 | 24221 ft | 365 kts | 243° |
| 2026-04-24 13:54 | 36.01179 | -88.47282 | 23831 ft | 363 kts | 243° |
| 2026-04-24 13:54 | 35.99920 | -88.49985 | 23425 ft | 362 kts | 242° |
| 2026-04-24 13:54 | 35.98665 | -88.52674 | 22961 ft | 360 kts | 242° |
| 2026-04-24 13:54 | 35.97422 | -88.55334 | 22564 ft | 357 kts | 242° |
| 2026-04-24 13:55 | 35.96185 | -88.57980 | 22158 ft | 354 kts | 242° |
| 2026-04-24 13:55 | 35.94961 | -88.60597 | 21771 ft | 351 kts | 242° |
| 2026-04-24 13:55 | 35.93746 | -88.63193 | 21395 ft | 348 kts | 242° |
| 2026-04-24 13:55 | 35.92537 | -88.65774 | 21017 ft | 346 kts | 242° |
| 2026-04-24 13:56 | 35.91338 | -88.68332 | 20639 ft | 343 kts | 242° |
| 2026-04-24 13:56 | 35.90145 | -88.70875 | 20270 ft | 341 kts | 242° |
| 2026-04-24 13:56 | 35.88959 | -88.73403 | 19894 ft | 339 kts | 242° |
| 2026-04-24 13:56 | 35.87779 | -88.75913 | 19523 ft | 338 kts | 242° |
| 2026-04-24 13:57 | 35.86602 | -88.78415 | 19144 ft | 336 kts | 242° |
| 2026-04-24 13:57 | 35.85428 | -88.80908 | 18783 ft | 335 kts | 242° |
| 2026-04-24 13:57 | 35.84258 | -88.83391 | 18418 ft | 334 kts | 242° |
| 2026-04-24 13:57 | 35.83092 | -88.85862 | 18024 ft | 334 kts | 242° |
| 2026-04-24 13:58 | 35.81928 | -88.88330 | 17614 ft | 332 kts | 242° |
| 2026-04-24 13:58 | 35.80770 | -88.90784 | 17227 ft | 330 kts | 241° |
| 2026-04-24 13:58 | 35.79615 | -88.93226 | 16859 ft | 328 kts | 241° |
| 2026-04-24 13:58 | 35.78470 | -88.95643 | 16532 ft | 325 kts | 241° |
| 2026-04-24 13:59 | 35.77333 | -88.98041 | 16168 ft | 324 kts | 241° |
| 2026-04-24 13:59 | 35.76202 | -89.00429 | 15815 ft | 322 kts | 241° |
| 2026-04-24 13:59 | 35.75074 | -89.02812 | 15457 ft | 321 kts | 240° |
| 2026-04-24 13:59 | 35.73953 | -89.05179 | 15095 ft | 320 kts | 241° |
| 2026-04-24 14:00 | 35.72792 | -89.07497 | 14696 ft | 315 kts | 234° |
| 2026-04-24 14:00 | 35.71360 | -89.09535 | 14383 ft | 315 kts | 228° |
| 2026-04-24 14:00 | 35.69825 | -89.11455 | 14041 ft | 314 kts | 227° |
| 2026-04-24 14:00 | 35.68281 | -89.13360 | 13691 ft | 314 kts | 227° |
| 2026-04-24 14:01 | 35.66748 | -89.15272 | 13305 ft | 314 kts | 227° |
| 2026-04-24 14:01 | 35.65224 | -89.17203 | 12936 ft | 314 kts | 227° |
| 2026-04-24 14:01 | 35.63717 | -89.19136 | 12566 ft | 313 kts | 227° |
| 2026-04-24 14:01 | 35.62218 | -89.21069 | 12232 ft | 312 kts | 227° |
| 2026-04-24 14:02 | 35.60723 | -89.23001 | 11876 ft | 312 kts | 227° |
| 2026-04-24 14:02 | 35.59261 | -89.24966 | 11522 ft | 311 kts | 229° |
| 2026-04-24 14:02 | 35.57918 | -89.26978 | 11155 ft | 295 kts | 230° |
| 2026-04-24 14:02 | 35.56654 | -89.28919 | 10843 ft | 286 kts | 230° |
| 2026-04-24 14:03 | 35.55423 | -89.30795 | 10538 ft | 280 kts | 230° |
| 2026-04-24 14:03 | 35.54211 | -89.32623 | 10396 ft | 268 kts | 229° |
| 2026-04-24 14:03 | 35.53065 | -89.34343 | 10272 ft | 254 kts | 229° |
| 2026-04-24 14:03 | 35.51974 | -89.35976 | 10152 ft | 241 kts | 229° |
| 2026-04-24 14:04 | 35.50918 | -89.37556 | 10070 ft | 241 kts | 229° |
| 2026-04-24 14:04 | 35.49829 | -89.39178 | 9966 ft | 252 kts | 230° |
| 2026-04-24 14:04 | 35.48841 | -89.40994 | 9734 ft | 258 kts | 239° |
| 2026-04-24 14:04 | 35.48019 | -89.42926 | 9488 ft | 259 kts | 241° |
| 2026-04-24 14:05 | 35.47214 | -89.44900 | 9286 ft | 258 kts | 242° |
| 2026-04-24 14:05 | 35.46407 | -89.46864 | 9060 ft | 257 kts | 241° |
| 2026-04-24 14:05 | 35.45597 | -89.48817 | 8847 ft | 256 kts | 241° |
| 2026-04-24 14:05 | 35.44784 | -89.50757 | 8627 ft | 255 kts | 241° |
| 2026-04-24 14:06 | 35.43971 | -89.52680 | 8393 ft | 253 kts | 241° |
| 2026-04-24 14:06 | 35.43165 | -89.54574 | 8178 ft | 247 kts | 241° |
| 2026-04-24 14:06 | 35.42376 | -89.56422 | 7963 ft | 242 kts | 241° |
| 2026-04-24 14:06 | 35.41600 | -89.58234 | 7765 ft | 239 kts | 241° |
| 2026-04-24 14:07 | 35.40827 | -89.60031 | 7571 ft | 238 kts | 241° |
| 2026-04-24 14:07 | 35.40058 | -89.61815 | 7353 ft | 236 kts | 241° |
| 2026-04-24 14:07 | 35.39294 | -89.63586 | 7169 ft | 234 kts | 241° |
| 2026-04-24 14:07 | 35.38538 | -89.65336 | 6957 ft | 232 kts | 241° |
| 2026-04-24 14:08 | 35.37786 | -89.67073 | 6765 ft | 230 kts | 241° |
| 2026-04-24 14:08 | 35.37040 | -89.68797 | 6576 ft | 227 kts | 241° |
| 2026-04-24 14:08 | 35.36302 | -89.70500 | 6372 ft | 226 kts | 241° |
| 2026-04-24 14:08 | 35.35576 | -89.72175 | 6184 ft | 225 kts | 241° |
| 2026-04-24 14:09 | 35.34842 | -89.73867 | 5979 ft | 225 kts | 241° |
| 2026-04-24 14:09 | 35.34108 | -89.75557 | 5795 ft | 224 kts | 241° |
| 2026-04-24 14:09 | 35.33378 | -89.77238 | 5586 ft | 223 kts | 242° |
| 2026-04-24 14:09 | 35.32648 | -89.78916 | 5397 ft | 223 kts | 242° |
| 2026-04-24 14:10 | 35.32164 | -89.80029 | 5273 ft | 223 kts | 242° |
| 2026-04-24 14:10 | 35.31192 | -89.82262 | 4991 ft | 222 kts | 242° |
| 2026-04-24 14:10 | 35.30466 | -89.83928 | 4822 ft | 221 kts | 242° |
| 2026-04-24 14:10 | 35.29741 | -89.85590 | 4625 ft | 221 kts | 242° |
| 2026-04-24 14:11 | 35.29015 | -89.87251 | 4427 ft | 221 kts | 242° |
| 2026-04-24 14:11 | 35.28294 | -89.88903 | 4236 ft | 217 kts | 243° |
| 2026-04-24 14:11 | 35.26888 | -89.92133 | 3863 ft | 215 kts | 242° |
| 2026-04-24 14:12 | 35.26186 | -89.93746 | 3686 ft | 215 kts | 243° |
| 2026-04-24 14:12 | 35.25485 | -89.95359 | 3501 ft | 215 kts | 243° |
| 2026-04-24 14:12 | 35.24684 | -89.96884 | 3283 ft | 210 kts | 225° |
| 2026-04-24 14:12 | 35.23421 | -89.97669 | 3086 ft | 203 kts | 193° |
| 2026-04-24 14:13 | 35.22031 | -89.97828 | 3057 ft | 201 kts | 192° |
| 2026-04-24 14:13 | 35.20632 | -89.97923 | 2998 ft | 199 kts | 187° |
| 2026-04-24 14:13 | 35.19286 | -89.97918 | 2960 ft | 190 kts | 187° |
| 2026-04-24 14:13 | 35.17960 | -89.97891 | 2710 ft | 185 kts | 187° |
| 2026-04-24 14:14 | 35.16752 | -89.97860 | 2436 ft | 163 kts | 188° |
| 2026-04-24 14:14 | 35.15664 | -89.97839 | 2231 ft | 150 kts | 188° |
| 2026-04-24 14:14 | 35.13696 | -89.97800 | 1928 ft | 144 kts | 189° |
| 2026-04-24 14:15 | 35.12683 | -89.97776 | 1712 ft | 145 kts | 188° |
| 2026-04-24 14:15 | 35.11697 | -89.97754 | 1500 ft | 139 kts | 188° |
| 2026-04-24 14:15 | 35.10734 | -89.97735 | 1310 ft | 138 kts | 186° |
| 2026-04-24 14:15 | 35.09766 | -89.97711 | 1143 ft | 142 kts | 184° |
| 2026-04-24 14:16 | 35.08758 | -89.97690 | 981 ft | 146 kts | 184° |
| 2026-04-24 14:16 | 35.07754 | -89.97675 | 767 ft | 140 kts | 186° |
| 2026-04-24 14:16 | 35.06815 | -89.97648 | 531 ft | 133 kts | 185° |
| 2026-04-24 14:17 | 35.04961 | -89.97609 | 332 ft | 124 kts | 183° |
| 2026-04-24 14:17 | 35.04169 | -89.97592 | 329 ft | 98 kts | 179° |
| 2026-04-24 14:17 | 35.03403 | -89.97579 | 325 ft | 43 kts | 181° |
| 2026-04-24 14:18 | 35.03238 | -89.97648 | 324 ft | 16 kts | 231° |
| 2026-04-24 14:18 | 35.03297 | -89.97723 | 330 ft | 16 kts | 358° |
| 2026-04-24 14:18 | 35.03411 | -89.97727 | 327 ft | 16 kts | 357° |
| 2026-04-24 14:18 | 35.03525 | -89.97729 | 329 ft | 16 kts | 358° |
| 2026-04-24 14:19 | 35.03600 | -89.97731 | 330 ft | 16 kts | 358° |
| 2026-04-24 14:19 | 35.03756 | -89.97732 | 330 ft | 18 kts | 359° |
| 2026-04-24 14:19 | 35.03892 | -89.97736 | 330 ft | 21 kts | 358° |
| 2026-04-24 14:19 | 35.04044 | -89.97738 | 331 ft | 23 kts | 359° |
| 2026-04-24 14:20 | 35.04213 | -89.97742 | 331 ft | 26 kts | 359° |
| 2026-04-24 14:20 | 35.04386 | -89.97746 | 331 ft | 25 kts | 359° |
| 2026-04-24 14:20 | 35.04558 | -89.97749 | 330 ft | 25 kts | 359° |
| 2026-04-24 14:20 | 35.04730 | -89.97754 | 330 ft | 25 kts | 359° |
| 2026-04-24 14:21 | 35.04883 | -89.97756 | 330 ft | 14 kts | 359° |
| 2026-04-24 14:21 | 35.04982 | -89.97758 | 330 ft | 14 kts | 359° |
| 2026-04-24 14:21 | 35.05048 | -89.97759 | 328 ft | 14 kts | 359° |
| 2026-04-24 14:21 | 35.05179 | -89.97763 | 330 ft | 14 kts | 359° |
| 2026-04-24 14:22 | 35.05281 | -89.97766 | 330 ft | 16 kts | 356° |
| 2026-04-24 14:22 | 35.05400 | -89.97782 | 331 ft | 18 kts | 355° |
| 2026-04-24 14:22 | 35.05665 | -89.97784 | 333 ft | 17 kts | 359° |
| 2026-04-24 14:23 | 35.05715 | -89.97784 | 333 ft | 9 kts | 359° |
| 2026-04-24 14:23 | 35.05812 | -89.97785 | 335 ft | 19 kts | 359° |
| 2026-04-24 14:23 | 35.05963 | -89.97787 | 333 ft | 22 kts | 359° |
| 2026-04-24 14:23 | 35.06114 | -89.97788 | 333 ft | 22 kts | 360° |
| 2026-04-24 14:24 | 35.06231 | -89.97789 | 332 ft | 14 kts | 360° |
| 2026-04-24 14:24 | 35.06318 | -89.97794 | 332 ft | 11 kts | 343° |
| 2026-04-24 14:24 | 35.06352 | -89.97874 | 331 ft | 11 kts | 277° |
| 2026-04-24 14:24 | 35.06352 | -89.97934 | 332 ft | 5 kts | 253° |
| 2026-04-24 14:25 | 35.06320 | -89.97956 | 331 ft | 6 kts | 190° |
| 2026-04-24 14:25 | 35.06292 | -89.97958 | 332 ft | 0 kts | 183° |
| 2026-04-24 14:25 | 35.06291 | -89.97958 | 332 ft | 0 kts | 183° |
| 2026-04-24 14:25 | 35.06288 | -89.97958 | 332 ft | 0 kts | 183° |